Terminal Aerodrome Forecast
Issued by NWS Omaha/Valley, NE

Home | Current Version | Previous Version | Text Only | Print | Product List | Glossary Off
Versions: 1 2 3 4 5 6 7 8 9 10 11 12 13 14 15 16 17 18 19

000
FTUS43 KOAX 301535 AAA
TAFOFK
TAF AMD
KOFK 301535Z 3016/3112 08006KT P6SM BKN005 BKN040
      TEMPO 3016/3018 SCT005 BKN070
     FM301800 11008KT P6SM OVC100
     FM310600 04004KT 4SM BR SCT120=

USA.gov is the U.S. government's official web portal to all federal, state and local government web resources and services.